sensor_id;sensor_type;location;lat;lon;timestamp;P1;durP1;ratioP1;P2;durP2;ratioP2
75508;SDS011;64214;47.250;11.332;2023-03-03T00:00:07;11.07;;;7.03;;
75508;SDS011;64214;47.250;11.332;2023-03-03T00:00:25;11.82;;;7.43;;
75508;SDS011;64214;47.250;11.332;2023-03-03T00:00:36;11.48;;;7.15;;
75508;SDS011;64214;47.250;11.332;2023-03-03T00:00:48;11.98;;;7.07;;
75508;SDS011;64214;47.250;11.332;2023-03-03T00:00:59;13.52;;;7.18;;
75508;SDS011;64214;47.250;11.332;2023-03-03T00:01:10;14.38;;;7.88;;
75508;SDS011;64214;47.250;11.332;2023-03-03T00:01:22;13.18;;;7.93;;
75508;SDS011;64214;47.250;11.332;2023-03-03T00:01:36;12.45;;;7.80;;
75508;SDS011;64214;47.250;11.332;2023-03-03T00:01:47;12.80;;;7.88;;
75508;SDS011;64214;47.250;11.332;2023-03-03T00:01:58;12.73;;;8.05;;
75508;SDS011;64214;47.250;11.332;2023-03-03T00:02:09;12.43;;;8.13;;
75508;SDS011;64214;47.250;11.332;2023-03-03T00:02:20;12.05;;;8.18;;
75508;SDS011;64214;47.250;11.332;2023-03-03T00:02:31;11.68;;;7.90;;
75508;SDS011;64214;47.250;11.332;2023-03-03T00:02:43;12.05;;;7.75;;
75508;SDS011;64214;47.250;11.332;2023-03-03T00:02:55;11.57;;;7.25;;
75508;SDS011;64214;47.250;11.332;2023-03-03T00:03:09;12.07;;;7.03;;
75508;SDS011;64214;47.250;11.332;2023-03-03T00:03:23;13.68;;;7.30;;
75508;SDS011;64214;47.250;11.332;2023-03-03T00:03:35;12.90;;;7.28;;
75508;SDS011;64214;47.250;11.332;2023-03-03T00:03:46;13.15;;;7.00;;
75508;SDS011;64214;47.250;11.332;2023-03-03T00:03:57;11.70;;;7.30;;
75508;SDS011;64214;47.250;11.332;2023-03-03T00:04:09;12.18;;;7.50;;
75508;SDS011;64214;47.250;11.332;2023-03-03T00:04:20;11.70;;;7.78;;
75508;SDS011;64214;47.250;11.332;2023-03-03T00:04:31;12.25;;;7.88;;
75508;SDS011;64214;47.250;11.332;2023-03-03T00:04:42;12.63;;;8.40;;
75508;SDS011;64214;47.250;11.332;2023-03-03T00:04:53;12.18;;;8.23;;
75508;SDS011;64214;47.250;11.332;2023-03-03T00:05:05;12.35;;;8.15;;
75508;SDS011;64214;47.250;11.332;2023-03-03T00:05:17;12.25;;;7.43;;
75508;SDS011;64214;47.250;11.332;2023-03-03T00:05:29;11.93;;;7.40;;
75508;SDS011;64214;47.250;11.332;2023-03-03T00:05:42;11.55;;;7.47;;
75508;SDS011;64214;47.250;11.332;2023-03-03T00:05:54;11.02;;;7.07;;
75508;SDS011;64214;47.250;11.332;2023-03-03T00:06:05;11.50;;;6.60;;
75508;SDS011;64214;47.250;11.332;2023-03-03T00:06:20;11.68;;;6.22;;
75508;SDS011;64214;47.250;11.332;2023-03-03T00:06:31;11.68;;;6.47;;
75508;SDS011;64214;47.250;11.332;2023-03-03T00:06:43;12.63;;;6.72;;
75508;SDS011;64214;47.250;11.332;2023-03-03T00:06:54;11.20;;;6.28;;
75508;SDS011;64214;47.250;11.332;2023-03-03T00:07:06;9.77;;;5.90;;
75508;SDS011;64214;47.250;11.332;2023-03-03T00:07:17;8.77;;;5.65;;
75508;SDS011;64214;47.250;11.332;2023-03-03T00:07:33;8.70;;;6.03;;
75508;SDS011;64214;47.250;11.332;2023-03-03T00:07:44;9.73;;;6.38;;
75508;SDS011;64214;47.250;11.332;2023-03-03T00:07:55;10.13;;;6.13;;
75508;SDS011;64214;47.250;11.332;2023-03-03T00:08:07;9.57;;;5.60;;
75508;SDS011;64214;47.250;11.332;2023-03-03T00:08:18;9.15;;;5.70;;
75508;SDS011;64214;47.250;11.332;2023-03-03T00:08:30;8.48;;;5.88;;
75508;SDS011;64214;47.250;11.332;2023-03-03T00:08:42;8.53;;;5.83;;
75508;SDS011;64214;47.250;11.332;2023-03-03T00:08:53;9.13;;;6.00;;
75508;SDS011;64214;47.250;11.332;2023-03-03T00:09:04;9.20;;;5.75;;
75508;SDS011;64214;47.250;11.332;2023-03-03T00:09:15;9.10;;;5.75;;
75508;SDS011;64214;47.250;11.332;2023-03-03T00:09:26;8.27;;;5.60;;
75508;SDS011;64214;47.250;11.332;2023-03-03T00:09:37;8.63;;;5.90;;
75508;SDS011;64214;47.250;11.332;2023-03-03T00:09:49;8.75;;;5.72;;
75508;SDS011;64214;47.250;11.332;2023-03-03T00:10:00;9.25;;;5.82;;
75508;SDS011;64214;47.250;11.332;2023-03-03T00:10:11;9.18;;;5.72;;
75508;SDS011;64214;47.250;11.332;2023-03-03T00:10:23;8.95;;;5.70;;
75508;SDS011;64214;47.250;11.332;2023-03-03T00:10:35;9.13;;;5.72;;
75508;SDS011;64214;47.250;11.332;2023-03-03T00:10:46;9.07;;;5.65;;
75508;SDS011;64214;47.250;11.332;2023-03-03T00:10:57;9.70;;;5.93;;
75508;SDS011;64214;47.250;11.332;2023-03-03T00:11:10;9.52;;;5.63;;
75508;SDS011;64214;47.250;11.332;2023-03-03T00:11:21;10.10;;;5.80;;
75508;SDS011;64214;47.250;11.332;2023-03-03T00:11:33;9.38;;;5.78;;
75508;SDS011;64214;47.250;11.332;2023-03-03T00:11:44;8.88;;;6.03;;
75508;SDS011;64214;47.250;11.332;2023-03-03T00:11:57;8.77;;;5.85;;
75508;SDS011;64214;47.250;11.332;2023-03-03T00:12:25;7.97;;;5.50;;
75508;SDS011;64214;47.250;11.332;2023-03-03T00:12:48;9.68;;;5.72;;
75508;SDS011;64214;47.250;11.332;2023-03-03T00:13:00;8.30;;;5.30;;
75508;SDS011;64214;47.250;11.332;2023-03-03T00:13:12;9.30;;;5.38;;
75508;SDS011;64214;47.250;11.332;2023-03-03T00:13:29;9.88;;;5.80;;
75508;SDS011;64214;47.250;11.332;2023-03-03T00:13:46;8.88;;;5.80;;
75508;SDS011;64214;47.250;11.332;2023-03-03T00:13:58;9.10;;;5.70;;
75508;SDS011;64214;47.250;11.332;2023-03-03T00:14:23;9.35;;;5.63;;
75508;SDS011;64214;47.250;11.332;2023-03-03T00:14:39;8.73;;;5.32;;
75508;SDS011;64214;47.250;11.332;2023-03-03T00:14:51;9.20;;;5.47;;
75508;SDS011;64214;47.250;11.332;2023-03-03T00:15:12;9.68;;;5.80;;
75508;SDS011;64214;47.250;11.332;2023-03-03T00:15:25;8.23;;;5.78;;
75508;SDS011;64214;47.250;11.332;2023-03-03T00:15:39;8.30;;;5.85;;
75508;SDS011;64214;47.250;11.332;2023-03-03T00:15:51;8.32;;;5.75;;
75508;SDS011;64214;47.250;11.332;2023-03-03T00:16:37;10.43;;;5.75;;
75508;SDS011;64214;47.250;11.332;2023-03-03T00:16:49;9.23;;;5.70;;
75508;SDS011;64214;47.250;11.332;2023-03-03T00:17:00;9.95;;;6.20;;
75508;SDS011;64214;47.250;11.332;2023-03-03T00:17:26;10.32;;;5.88;;
75508;SDS011;64214;47.250;11.332;2023-03-03T00:17:39;8.77;;;5.95;;
75508;SDS011;64214;47.250;11.332;2023-03-03T00:17:50;8.48;;;5.85;;
75508;SDS011;64214;47.250;11.332;2023-03-03T00:18:02;8.70;;;5.53;;
75508;SDS011;64214;47.250;11.332;2023-03-03T00:18:49;10.52;;;6.40;;
75508;SDS011;64214;47.250;11.332;2023-03-03T00:19:01;10.07;;;5.93;;
75508;SDS011;64214;47.250;11.332;2023-03-03T00:19:13;10.15;;;6.10;;
75508;SDS011;64214;47.250;11.332;2023-03-03T00:19:28;10.48;;;5.97;;
75508;SDS011;64214;47.250;11.332;2023-03-03T00:19:48;9.98;;;6.20;;
75508;SDS011;64214;47.250;11.332;2023-03-03T00:19:59;9.75;;;5.97;;
75508;SDS011;64214;47.250;11.332;2023-03-03T00:20:38;10.23;;;5.75;;
75508;SDS011;64214;47.250;11.332;2023-03-03T00:20:53;10.25;;;6.10;;
75508;SDS011;64214;47.250;11.332;2023-03-03T00:21:09;9.50;;;5.97;;
75508;SDS011;64214;47.250;11.332;2023-03-03T00:21:34;10.10;;;5.93;;
75508;SDS011;64214;47.250;11.332;2023-03-03T00:21:51;8.90;;;5.70;;
75508;SDS011;64214;47.250;11.332;2023-03-03T00:22:06;9.27;;;5.85;;
75508;SDS011;64214;47.250;11.332;2023-03-03T00:22:29;9.18;;;5.97;;
75508;SDS011;64214;47.250;11.332;2023-03-03T00:22:46;9.75;;;5.78;;
75508;SDS011;64214;47.250;11.332;2023-03-03T00:23:06;9.73;;;5.72;;
75508;SDS011;64214;47.250;11.332;2023-03-03T00:23:36;8.98;;;5.72;;
75508;SDS011;64214;47.250;11.332;2023-03-03T00:23:50;8.63;;;5.00;;
75508;SDS011;64214;47.250;11.332;2023-03-03T00:24:33;9.80;;;5.63;;
75508;SDS011;64214;47.250;11.332;2023-03-03T00:24:49;9.60;;;5.32;;
75508;SDS011;64214;47.250;11.332;2023-03-03T00:25:35;8.38;;;5.45;;
75508;SDS011;64214;47.250;11.332;2023-03-03T00:25:49;8.93;;;5.55;;
75508;SDS011;64214;47.250;11.332;2023-03-03T00:26:01;9.75;;;5.55;;
75508;SDS011;64214;47.250;11.332;2023-03-03T00:26:22;10.63;;;5.60;;
75508;SDS011;64214;47.250;11.332;2023-03-03T00:26:37;10.98;;;5.05;;
75508;SDS011;64214;47.250;11.332;2023-03-03T00:26:50;9.70;;;5.07;;
75508;SDS011;64214;47.250;11.332;2023-03-03T00:27:45;10.00;;;5.53;;
75508;SDS011;64214;47.250;11.332;2023-03-03T00:27:48;9.23;;;5.40;;
75508;SDS011;64214;47.250;11.332;2023-03-03T00:28:45;8.95;;;5.30;;
75508;SDS011;64214;47.250;11.332;2023-03-03T00:28:57;9.13;;;5.50;;
75508;SDS011;64214;47.250;11.332;2023-03-03T00:29:50;8.65;;;5.88;;
75508;SDS011;64214;47.250;11.332;2023-03-03T00:30:05;10.13;;;6.53;;
75508;SDS011;64214;47.250;11.332;2023-03-03T00:30:27;10.70;;;6.60;;
75508;SDS011;64214;47.250;11.332;2023-03-03T00:30:38;9.77;;;6.53;;
75508;SDS011;64214;47.250;11.332;2023-03-03T00:30:50;9.10;;;6.55;;
75508;SDS011;64214;47.250;11.332;2023-03-03T00:31:05;11.13;;;6.70;;
75508;SDS011;64214;47.250;11.332;2023-03-03T00:31:44;10.60;;;6.30;;
75508;SDS011;64214;47.250;11.332;2023-03-03T00:32:41;10.25;;;6.68;;
75508;SDS011;64214;47.250;11.332;2023-03-03T00:32:47;9.95;;;6.15;;
75508;SDS011;64214;47.250;11.332;2023-03-03T00:33:02;10.10;;;6.43;;
75508;SDS011;64214;47.250;11.332;2023-03-03T00:33:26;9.50;;;6.10;;
75508;SDS011;64214;47.250;11.332;2023-03-03T00:33:42;9.70;;;6.20;;
75508;SDS011;64214;47.250;11.332;2023-03-03T00:33:57;9.98;;;6.15;;
75508;SDS011;64214;47.250;11.332;2023-03-03T00:34:26;10.90;;;6.20;;
75508;SDS011;64214;47.250;11.332;2023-03-03T00:34:37;10.43;;;5.85;;
75508;SDS011;64214;47.250;11.332;2023-03-03T00:34:49;10.10;;;5.57;;
75508;SDS011;64214;47.250;11.332;2023-03-03T00:35:25;9.65;;;5.78;;
75508;SDS011;64214;47.250;11.332;2023-03-03T00:35:36;10.63;;;6.38;;
75508;SDS011;64214;47.250;11.332;2023-03-03T00:35:49;10.85;;;6.28;;
75508;SDS011;64214;47.250;11.332;2023-03-03T00:36:41;9.77;;;5.80;;
75508;SDS011;64214;47.250;11.332;2023-03-03T00:36:53;9.45;;;5.63;;
75508;SDS011;64214;47.250;11.332;2023-03-03T00:37:12;10.13;;;6.00;;
75508;SDS011;64214;47.250;11.332;2023-03-03T00:37:38;9.68;;;5.72;;
75508;SDS011;64214;47.250;11.332;2023-03-03T00:37:53;9.80;;;5.72;;
75508;SDS011;64214;47.250;11.332;2023-03-03T00:38:16;10.15;;;6.20;;
75508;SDS011;64214;47.250;11.332;2023-03-03T00:38:27;9.23;;;5.78;;
75508;SDS011;64214;47.250;11.332;2023-03-03T00:38:39;8.77;;;5.55;;
75508;SDS011;64214;47.250;11.332;2023-03-03T00:38:50;9.23;;;5.90;;
75508;SDS011;64214;47.250;11.332;2023-03-03T00:39:18;10.23;;;5.88;;
75508;SDS011;64214;47.250;11.332;2023-03-03T00:39:37;9.13;;;5.68;;
75508;SDS011;64214;47.250;11.332;2023-03-03T00:39:48;9.45;;;5.85;;
75508;SDS011;64214;47.250;11.332;2023-03-03T00:40:18;9.05;;;5.53;;
75508;SDS011;64214;47.250;11.332;2023-03-03T00:40:37;8.82;;;5.82;;
75508;SDS011;64214;47.250;11.332;2023-03-03T00:40:49;9.82;;;5.57;;
75508;SDS011;64214;47.250;11.332;2023-03-03T00:41:00;9.93;;;5.70;;
75508;SDS011;64214;47.250;11.332;2023-03-03T00:41:15;9.52;;;5.75;;
75508;SDS011;64214;47.250;11.332;2023-03-03T00:41:33;9.75;;;5.80;;
75508;SDS011;64214;47.250;11.332;2023-03-03T00:41:45;11.38;;;6.25;;
75508;SDS011;64214;47.250;11.332;2023-03-03T00:41:56;11.65;;;6.47;;
75508;SDS011;64214;47.250;11.332;2023-03-03T00:42:15;11.43;;;6.15;;
75508;SDS011;64214;47.250;11.332;2023-03-03T00:42:28;9.40;;;5.35;;
75508;SDS011;64214;47.250;11.332;2023-03-03T00:42:40;9.25;;;5.35;;
75508;SDS011;64214;47.250;11.332;2023-03-03T00:42:52;9.38;;;5.25;;
75508;SDS011;64214;47.250;11.332;2023-03-03T00:43:18;8.37;;;4.93;;
75508;SDS011;64214;47.250;11.332;2023-03-03T00:43:34;7.85;;;5.18;;
75508;SDS011;64214;47.250;11.332;2023-03-03T00:43:46;9.20;;;5.13;;
75508;SDS011;64214;47.250;11.332;2023-03-03T00:43:57;9.85;;;5.28;;
75508;SDS011;64214;47.250;11.332;2023-03-03T00:44:58;10.07;;;6.00;;
75508;SDS011;64214;47.250;11.332;2023-03-03T00:45:29;10.07;;;6.00;;
75508;SDS011;64214;47.250;11.332;2023-03-03T00:45:52;8.23;;;5.53;;
75508;SDS011;64214;47.250;11.332;2023-03-03T00:46:04;8.65;;;5.40;;
75508;SDS011;64214;47.250;11.332;2023-03-03T00:46:18;10.25;;;5.75;;
75508;SDS011;64214;47.250;11.332;2023-03-03T00:46:30;11.32;;;5.75;;
75508;SDS011;64214;47.250;11.332;2023-03-03T00:46:42;11.32;;;5.60;;
75508;SDS011;64214;47.250;11.332;2023-03-03T00:46:53;9.20;;;5.40;;
75508;SDS011;64214;47.250;11.332;2023-03-03T00:47:48;9.10;;;5.68;;
75508;SDS011;64214;47.250;11.332;2023-03-03T00:48:00;8.55;;;5.32;;
75508;SDS011;64214;47.250;11.332;2023-03-03T00:48:48;9.40;;;5.63;;
75508;SDS011;64214;47.250;11.332;2023-03-03T00:49:00;9.35;;;5.45;;
75508;SDS011;64214;47.250;11.332;2023-03-03T00:49:31;10.63;;;6.25;;
75508;SDS011;64214;47.250;11.332;2023-03-03T00:49:42;10.65;;;6.35;;
75508;SDS011;64214;47.250;11.332;2023-03-03T00:49:55;9.68;;;5.93;;
75508;SDS011;64214;47.250;11.332;2023-03-03T00:50:26;10.25;;;5.90;;
75508;SDS011;64214;47.250;11.332;2023-03-03T00:50:40;10.30;;;5.88;;
75508;SDS011;64214;47.250;11.332;2023-03-03T00:50:57;10.48;;;6.07;;
75508;SDS011;64214;47.250;11.332;2023-03-03T00:51:23;10.75;;;6.43;;
75508;SDS011;64214;47.250;11.332;2023-03-03T00:51:37;10.73;;;6.57;;
75508;SDS011;64214;47.250;11.332;2023-03-03T00:51:48;11.15;;;6.30;;
75508;SDS011;64214;47.250;11.332;2023-03-03T00:51:59;11.32;;;6.40;;
75508;SDS011;64214;47.250;11.332;2023-03-03T00:52:15;10.52;;;6.40;;
75508;SDS011;64214;47.250;11.332;2023-03-03T00:52:27;10.98;;;6.50;;
75508;SDS011;64214;47.250;11.332;2023-03-03T00:52:40;10.95;;;6.28;;
75508;SDS011;64214;47.250;11.332;2023-03-03T00:53:00;10.05;;;6.32;;
75508;SDS011;64214;47.250;11.332;2023-03-03T00:53:21;9.68;;;6.03;;
75508;SDS011;64214;47.250;11.332;2023-03-03T00:53:34;9.38;;;6.00;;
75508;SDS011;64214;47.250;11.332;2023-03-03T00:53:45;8.75;;;5.85;;
75508;SDS011;64214;47.250;11.332;2023-03-03T00:53:56;9.93;;;5.95;;
75508;SDS011;64214;47.250;11.332;2023-03-03T00:54:08;9.75;;;5.80;;
75508;SDS011;64214;47.250;11.332;2023-03-03T00:54:19;9.23;;;5.93;;
75508;SDS011;64214;47.250;11.332;2023-03-03T00:54:30;8.35;;;6.00;;
75508;SDS011;64214;47.250;11.332;2023-03-03T00:54:42;9.35;;;6.22;;
75508;SDS011;64214;47.250;11.332;2023-03-03T00:54:53;9.23;;;5.95;;
75508;SDS011;64214;47.250;11.332;2023-03-03T00:55:04;10.13;;;6.35;;
75508;SDS011;64214;47.250;11.332;2023-03-03T00:55:16;10.13;;;6.53;;
75508;SDS011;64214;47.250;11.332;2023-03-03T00:55:28;10.25;;;6.60;;
75508;SDS011;64214;47.250;11.332;2023-03-03T00:55:40;10.27;;;6.40;;
75508;SDS011;64214;47.250;11.332;2023-03-03T00:55:51;10.85;;;6.50;;
75508;SDS011;64214;47.250;11.332;2023-03-03T00:56:03;11.95;;;6.88;;
75508;SDS011;64214;47.250;11.332;2023-03-03T00:56:14;10.95;;;6.70;;
75508;SDS011;64214;47.250;11.332;2023-03-03T00:56:25;10.93;;;6.70;;
75508;SDS011;64214;47.250;11.332;2023-03-03T00:56:37;9.68;;;6.43;;
75508;SDS011;64214;47.250;11.332;2023-03-03T00:56:49;8.98;;;6.20;;
75508;SDS011;64214;47.250;11.332;2023-03-03T00:57:00;10.80;;;6.22;;
75508;SDS011;64214;47.250;11.332;2023-03-03T00:57:11;11.13;;;6.38;;
75508;SDS011;64214;47.250;11.332;2023-03-03T00:57:23;11.45;;;6.60;;
75508;SDS011;64214;47.250;11.332;2023-03-03T00:57:36;10.63;;;6.65;;
75508;SDS011;64214;47.250;11.332;2023-03-03T00:57:50;10.10;;;6.15;;
75508;SDS011;64214;47.250;11.332;2023-03-03T00:58:05;10.27;;;6.18;;
75508;SDS011;64214;47.250;11.332;2023-03-03T00:58:21;9.93;;;6.03;;
75508;SDS011;64214;47.250;11.332;2023-03-03T00:58:33;10.00;;;6.00;;
75508;SDS011;64214;47.250;11.332;2023-03-03T00:58:44;9.75;;;5.85;;
75508;SDS011;64214;47.250;11.332;2023-03-03T00:58:58;8.98;;;5.70;;
75508;SDS011;64214;47.250;11.332;2023-03-03T00:59:14;8.82;;;5.75;;
75508;SDS011;64214;47.250;11.332;2023-03-03T00:59:26;9.30;;;5.60;;
75508;SDS011;64214;47.250;11.332;2023-03-03T00:59:37;9.77;;;5.45;;
75508;SDS011;64214;47.250;11.332;2023-03-03T00:59:49;9.38;;;5.32;;
75508;SDS011;64214;47.250;11.332;2023-03-03T01:00:00;8.98;;;5.25;;
75508;SDS011;64214;47.250;11.332;2023-03-03T01:00:12;9.73;;;5.28;;
75508;SDS011;64214;47.250;11.332;2023-03-03T01:00:23;9.88;;;5.47;;
75508;SDS011;64214;47.250;11.332;2023-03-03T01:00:35;9.90;;;5.60;;
75508;SDS011;64214;47.250;11.332;2023-03-03T01:00:48;10.27;;;5.78;;
75508;SDS011;64214;47.250;11.332;2023-03-03T01:01:04;8.98;;;5.65;;
75508;SDS011;64214;47.250;11.332;2023-03-03T01:01:24;9.13;;;5.13;;
75508;SDS011;64214;47.250;11.332;2023-03-03T01:01:37;9.73;;;5.18;;
75508;SDS011;64214;47.250;11.332;2023-03-03T01:01:48;9.02;;;5.15;;
75508;SDS011;64214;47.250;11.332;2023-03-03T01:01:59;8.35;;;5.10;;
75508;SDS011;64214;47.250;11.332;2023-03-03T01:02:10;8.85;;;5.40;;
75508;SDS011;64214;47.250;11.332;2023-03-03T01:02:21;9.95;;;5.55;;
75508;SDS011;64214;47.250;11.332;2023-03-03T01:02:33;10.57;;;5.57;;
75508;SDS011;64214;47.250;11.332;2023-03-03T01:02:44;10.80;;;5.68;;
75508;SDS011;64214;47.250;11.332;2023-03-03T01:02:56;9.55;;;5.50;;
75508;SDS011;64214;47.250;11.332;2023-03-03T01:03:13;8.75;;;5.32;;
75508;SDS011;64214;47.250;11.332;2023-03-03T01:03:26;8.95;;;5.30;;
75508;SDS011;64214;47.250;11.332;2023-03-03T01:03:38;10.48;;;5.70;;
75508;SDS011;64214;47.250;11.332;2023-03-03T01:03:49;11.60;;;6.00;;
75508;SDS011;64214;47.250;11.332;2023-03-03T01:04:00;11.02;;;5.95;;
75508;SDS011;64214;47.250;11.332;2023-03-03T01:04:11;9.55;;;6.07;;
75508;SDS011;64214;47.250;11.332;2023-03-03T01:04:22;9.45;;;6.13;;
75508;SDS011;64214;47.250;11.332;2023-03-03T01:04:33;9.73;;;5.97;;
75508;SDS011;64214;47.250;11.332;2023-03-03T01:04:47;8.73;;;5.28;;
75508;SDS011;64214;47.250;11.332;2023-03-03T01:05:00;9.25;;;5.30;;
75508;SDS011;64214;47.250;11.332;2023-03-03T01:05:12;10.45;;;5.70;;
75508;SDS011;64214;47.250;11.332;2023-03-03T01:05:24;10.07;;;6.00;;
75508;SDS011;64214;47.250;11.332;2023-03-03T01:05:35;9.93;;;5.97;;
75508;SDS011;64214;47.250;11.332;2023-03-03T01:05:47;9.25;;;5.88;;
75508;SDS011;64214;47.250;11.332;2023-03-03T01:05:59;8.97;;;5.77;;
75508;SDS011;64214;47.250;11.332;2023-03-03T01:06:10;8.93;;;5.67;;
75508;SDS011;64214;47.250;11.332;2023-03-03T01:06:22;10.15;;;6.00;;
75508;SDS011;64214;47.250;11.332;2023-03-03T01:06:33;10.20;;;5.78;;
75508;SDS011;64214;47.250;11.332;2023-03-03T01:06:44;9.13;;;5.38;;
75508;SDS011;64214;47.250;11.332;2023-03-03T01:06:57;8.88;;;5.15;;
75508;SDS011;64214;47.250;11.332;2023-03-03T01:07:08;8.75;;;5.20;;
75508;SDS011;64214;47.250;11.332;2023-03-03T01:07:19;8.75;;;5.60;;
75508;SDS011;64214;47.250;11.332;2023-03-03T01:07:30;8.45;;;5.45;;
75508;SDS011;64214;47.250;11.332;2023-03-03T01:07:42;9.27;;;5.77;;
75508;SDS011;64214;47.250;11.332;2023-03-03T01:07:53;9.48;;;5.70;;
75508;SDS011;64214;47.250;11.332;2023-03-03T01:08:04;8.85;;;5.63;;
75508;SDS011;64214;47.250;11.332;2023-03-03T01:08:16;8.63;;;5.63;;
75508;SDS011;64214;47.250;11.332;2023-03-03T01:08:28;9.10;;;5.47;;
75508;SDS011;64214;47.250;11.332;2023-03-03T01:08:39;9.70;;;5.57;;
75508;SDS011;64214;47.250;11.332;2023-03-03T01:08:51;9.43;;;5.50;;
75508;SDS011;64214;47.250;11.332;2023-03-03T01:09:02;9.35;;;5.38;;
75508;SDS011;64214;47.250;11.332;2023-03-03T01:09:14;8.60;;;5.30;;
75508;SDS011;64214;47.250;11.332;2023-03-03T01:09:25;8.23;;;5.32;;
75508;SDS011;64214;47.250;11.332;2023-03-03T01:09:36;9.15;;;5.63;;
75508;SDS011;64214;47.250;11.332;2023-03-03T01:09:47;9.60;;;5.72;;
75508;SDS011;64214;47.250;11.332;2023-03-03T01:09:58;10.38;;;6.03;;
75508;SDS011;64214;47.250;11.332;2023-03-03T01:10:11;9.93;;;5.95;;
75508;SDS011;64214;47.250;11.332;2023-03-03T01:10:22;9.63;;;5.90;;
75508;SDS011;64214;47.250;11.332;2023-03-03T01:10:35;9.07;;;5.68;;
75508;SDS011;64214;47.250;11.332;2023-03-03T01:10:56;10.65;;;5.72;;
75508;SDS011;64214;47.250;11.332;2023-03-03T01:11:11;9.88;;;5.30;;
75508;SDS011;64214;47.250;11.332;2023-03-03T01:11:26;9.57;;;5.68;;
75508;SDS011;64214;47.250;11.332;2023-03-03T01:11:38;9.30;;;5.82;;
75508;SDS011;64214;47.250;11.332;2023-03-03T01:11:50;9.98;;;5.80;;
75508;SDS011;64214;47.250;11.332;2023-03-03T01:12:01;9.68;;;6.00;;
75508;SDS011;64214;47.250;11.332;2023-03-03T01:12:12;9.68;;;5.90;;
75508;SDS011;64214;47.250;11.332;2023-03-03T01:12:24;10.02;;;5.97;;
75508;SDS011;64214;47.250;11.332;2023-03-03T01:12:35;10.50;;;5.80;;
75508;SDS011;64214;47.250;11.332;2023-03-03T01:12:48;9.52;;;5.90;;
75508;SDS011;64214;47.250;11.332;2023-03-03T01:12:59;9.30;;;5.88;;
75508;SDS011;64214;47.250;11.332;2023-03-03T01:13:10;9.05;;;5.78;;
75508;SDS011;64214;47.250;11.332;2023-03-03T01:13:23;9.15;;;5.63;;
75508;SDS011;64214;47.250;11.332;2023-03-03T01:13:40;10.25;;;5.80;;
75508;SDS011;64214;47.250;11.332;2023-03-03T01:13:54;11.68;;;6.07;;
75508;SDS011;64214;47.250;11.332;2023-03-03T01:14:06;10.60;;;6.00;;
75508;SDS011;64214;47.250;11.332;2023-03-03T01:14:17;10.93;;;5.88;;
75508;SDS011;64214;47.250;11.332;2023-03-03T01:14:28;10.43;;;5.65;;
75508;SDS011;64214;47.250;11.332;2023-03-03T01:14:39;11.25;;;6.35;;
75508;SDS011;64214;47.250;11.332;2023-03-03T01:14:51;11.98;;;6.15;;
75508;SDS011;64214;47.250;11.332;2023-03-03T01:15:05;10.45;;;5.63;;
75508;SDS011;64214;47.250;11.332;2023-03-03T01:15:17;10.55;;;5.75;;
75508;SDS011;64214;47.250;11.332;2023-03-03T01:15:29;10.73;;;5.80;;
75508;SDS011;64214;47.250;11.332;2023-03-03T01:15:40;10.10;;;5.82;;
75508;SDS011;64214;47.250;11.332;2023-03-03T01:15:51;8.68;;;5.50;;
75508;SDS011;64214;47.250;11.332;2023-03-03T01:16:02;8.63;;;5.38;;
75508;SDS011;64214;47.250;11.332;2023-03-03T01:16:14;8.70;;;5.68;;
75508;SDS011;64214;47.250;11.332;2023-03-03T01:16:25;8.80;;;5.90;;
75508;SDS011;64214;47.250;11.332;2023-03-03T01:16:37;9.27;;;5.83;;
75508;SDS011;64214;47.250;11.332;2023-03-03T01:16:48;9.88;;;6.05;;
75508;SDS011;64214;47.250;11.332;2023-03-03T01:17:02;10.13;;;6.10;;
75508;SDS011;64214;47.250;11.332;2023-03-03T01:17:13;10.43;;;6.13;;
75508;SDS011;64214;47.250;11.332;2023-03-03T01:17:25;10.07;;;6.00;;
75508;SDS011;64214;47.250;11.332;2023-03-03T01:17:36;9.57;;;5.63;;
75508;SDS011;64214;47.250;11.332;2023-03-03T01:17:48;9.83;;;5.67;;
75508;SDS011;64214;47.250;11.332;2023-03-03T01:18:00;10.18;;;5.50;;
75508;SDS011;64214;47.250;11.332;2023-03-03T01:18:12;10.20;;;5.53;;
75508;SDS011;64214;47.250;11.332;2023-03-03T01:18:23;9.63;;;5.32;;
75508;SDS011;64214;47.250;11.332;2023-03-03T01:18:35;8.88;;;5.47;;
75508;SDS011;64214;47.250;11.332;2023-03-03T01:18:47;8.63;;;5.50;;
75508;SDS011;64214;47.250;11.332;2023-03-03T01:18:58;9.50;;;5.78;;
75508;SDS011;64214;47.250;11.332;2023-03-03T01:19:09;9.60;;;5.75;;
75508;SDS011;64214;47.250;11.332;2023-03-03T01:19:20;10.80;;;6.47;;
75508;SDS011;64214;47.250;11.332;2023-03-03T01:19:31;10.13;;;6.50;;
75508;SDS011;64214;47.250;11.332;2023-03-03T01:19:42;9.57;;;6.03;;
75508;SDS011;64214;47.250;11.332;2023-03-03T01:19:53;7.72;;;5.28;;
75508;SDS011;64214;47.250;11.332;2023-03-03T01:20:05;7.82;;;4.97;;
75508;SDS011;64214;47.250;11.332;2023-03-03T01:20:17;9.05;;;5.40;;
75508;SDS011;64214;47.250;11.332;2023-03-03T01:20:29;9.82;;;5.55;;
75508;SDS011;64214;47.250;11.332;2023-03-03T01:20:40;9.55;;;5.43;;
75508;SDS011;64214;47.250;11.332;2023-03-03T01:20:52;8.55;;;5.03;;
75508;SDS011;64214;47.250;11.332;2023-03-03T01:21:03;7.57;;;4.90;;
75508;SDS011;64214;47.250;11.332;2023-03-03T01:21:16;7.60;;;5.00;;
75508;SDS011;64214;47.250;11.332;2023-03-03T01:21:27;9.15;;;5.32;;
75508;SDS011;64214;47.250;11.332;2023-03-03T01:21:38;9.18;;;5.47;;
75508;SDS011;64214;47.250;11.332;2023-03-03T01:21:50;8.68;;;5.40;;
75508;SDS011;64214;47.250;11.332;2023-03-03T01:22:01;8.02;;;5.57;;
75508;SDS011;64214;47.250;11.332;2023-03-03T01:22:12;8.40;;;5.40;;
75508;SDS011;64214;47.250;11.332;2023-03-03T01:22:23;8.60;;;5.50;;
75508;SDS011;64214;47.250;11.332;2023-03-03T01:22:34;9.13;;;5.63;;
75508;SDS011;64214;47.250;11.332;2023-03-03T01:22:46;9.25;;;5.78;;
75508;SDS011;64214;47.250;11.332;2023-03-03T01:22:57;8.85;;;5.60;;
75508;SDS011;64214;47.250;11.332;2023-03-03T01:23:08;9.25;;;5.63;;
75508;SDS011;64214;47.250;11.332;2023-03-03T01:23:19;9.65;;;5.75;;
75508;SDS011;64214;47.250;11.332;2023-03-03T01:23:31;10.10;;;5.45;;
75508;SDS011;64214;47.250;11.332;2023-03-03T01:23:42;9.27;;;5.45;;
75508;SDS011;64214;47.250;11.332;2023-03-03T01:23:53;9.10;;;5.65;;
75508;SDS011;64214;47.250;11.332;2023-03-03T01:24:05;8.10;;;5.35;;
75508;SDS011;64214;47.250;11.332;2023-03-03T01:24:16;8.23;;;5.45;;
75508;SDS011;64214;47.250;11.332;2023-03-03T01:24:27;8.68;;;5.60;;
75508;SDS011;64214;47.250;11.332;2023-03-03T01:24:38;9.48;;;6.03;;
75508;SDS011;64214;47.250;11.332;2023-03-03T01:24:49;11.07;;;6.03;;
75508;SDS011;64214;47.250;11.332;2023-03-03T01:25:00;12.80;;;6.00;;
75508;SDS011;64214;47.250;11.332;2023-03-03T01:25:13;13.20;;;6.13;;
75508;SDS011;64214;47.250;11.332;2023-03-03T01:25:24;9.52;;;5.72;;
75508;SDS011;64214;47.250;11.332;2023-03-03T01:25:35;8.48;;;5.63;;
75508;SDS011;64214;47.250;11.332;2023-03-03T01:25:47;7.95;;;5.18;;
75508;SDS011;64214;47.250;11.332;2023-03-03T01:25:58;7.72;;;5.15;;
75508;SDS011;64214;47.250;11.332;2023-03-03T01:26:09;7.63;;;5.05;;
75508;SDS011;64214;47.250;11.332;2023-03-03T01:26:20;8.75;;;5.47;;
75508;SDS011;64214;47.250;11.332;2023-03-03T01:26:31;9.37;;;5.33;;
75508;SDS011;64214;47.250;11.332;2023-03-03T01:26:43;10.60;;;5.55;;
75508;SDS011;64214;47.250;11.332;2023-03-03T01:26:54;10.95;;;5.50;;